sensor_id;sensor_type;location;lat;lon;timestamp;P1;durP1;ratioP1;P2;durP2;ratioP2
14268;SDS011;7218;51.480;7.006;2023-06-22T00:01:08;6.50;;;4.13;;
14268;SDS011;7218;51.480;7.006;2023-06-22T00:03:34;7.03;;;4.40;;
14268;SDS011;7218;51.480;7.006;2023-06-22T00:06:01;4.70;;;4.22;;
14268;SDS011;7218;51.480;7.006;2023-06-22T00:08:27;6.22;;;4.40;;
14268;SDS011;7218;51.480;7.006;2023-06-22T00:10:54;5.28;;;4.70;;
14268;SDS011;7218;51.480;7.006;2023-06-22T00:13:20;7.22;;;4.50;;
14268;SDS011;7218;51.480;7.006;2023-06-22T00:15:47;5.65;;;4.35;;
14268;SDS011;7218;51.480;7.006;2023-06-22T00:18:15;7.97;;;4.40;;
14268;SDS011;7218;51.480;7.006;2023-06-22T00:20:42;5.78;;;4.57;;
14268;SDS011;7218;51.480;7.006;2023-06-22T00:23:10;7.57;;;5.00;;
14268;SDS011;7218;51.480;7.006;2023-06-22T00:25:38;5.35;;;4.35;;
14268;SDS011;7218;51.480;7.006;2023-06-22T00:28:06;6.53;;;4.50;;
14268;SDS011;7218;51.480;7.006;2023-06-22T00:30:34;6.05;;;4.80;;
14268;SDS011;7218;51.480;7.006;2023-06-22T00:33:01;5.40;;;4.43;;
14268;SDS011;7218;51.480;7.006;2023-06-22T00:35:29;7.43;;;4.88;;
14268;SDS011;7218;51.480;7.006;2023-06-22T00:37:55;7.20;;;4.90;;
14268;SDS011;7218;51.480;7.006;2023-06-22T00:40:26;6.47;;;4.68;;
14268;SDS011;7218;51.480;7.006;2023-06-22T00:42:53;7.05;;;4.90;;
14268;SDS011;7218;51.480;7.006;2023-06-22T00:45:20;6.55;;;5.57;;
14268;SDS011;7218;51.480;7.006;2023-06-22T00:47:48;6.53;;;5.05;;
14268;SDS011;7218;51.480;7.006;2023-06-22T00:50:16;10.23;;;5.38;;
14268;SDS011;7218;51.480;7.006;2023-06-22T00:52:47;7.45;;;5.28;;
14268;SDS011;7218;51.480;7.006;2023-06-22T00:55:17;6.18;;;5.07;;
14268;SDS011;7218;51.480;7.006;2023-06-22T00:57:44;10.60;;;5.10;;
14268;SDS011;7218;51.480;7.006;2023-06-22T01:00:12;9.20;;;5.60;;
14268;SDS011;7218;51.480;7.006;2023-06-22T01:02:44;9.05;;;5.72;;
14268;SDS011;7218;51.480;7.006;2023-06-22T01:05:12;11.48;;;5.90;;
14268;SDS011;7218;51.480;7.006;2023-06-22T01:07:39;7.97;;;5.35;;
14268;SDS011;7218;51.480;7.006;2023-06-22T01:10:14;8.35;;;5.47;;
14268;SDS011;7218;51.480;7.006;2023-06-22T01:12:48;9.60;;;5.28;;
14268;SDS011;7218;51.480;7.006;2023-06-22T01:15:23;9.68;;;5.78;;
14268;SDS011;7218;51.480;7.006;2023-06-22T01:17:54;7.53;;;5.90;;
14268;SDS011;7218;51.480;7.006;2023-06-22T01:20:23;7.70;;;5.60;;
14268;SDS011;7218;51.480;7.006;2023-06-22T01:22:57;7.57;;;5.68;;
14268;SDS011;7218;51.480;7.006;2023-06-22T01:25:33;8.43;;;5.55;;
14268;SDS011;7218;51.480;7.006;2023-06-22T01:28:10;7.72;;;6.43;;
14268;SDS011;7218;51.480;7.006;2023-06-22T01:30:50;6.15;;;5.55;;
14268;SDS011;7218;51.480;7.006;2023-06-22T01:33:30;7.10;;;5.43;;
14268;SDS011;7218;51.480;7.006;2023-06-22T01:35:59;6.60;;;5.53;;
14268;SDS011;7218;51.480;7.006;2023-06-22T01:38:27;8.77;;;5.90;;
14268;SDS011;7218;51.480;7.006;2023-06-22T01:40:55;6.72;;;5.38;;
14268;SDS011;7218;51.480;7.006;2023-06-22T01:43:24;7.72;;;5.88;;
14268;SDS011;7218;51.480;7.006;2023-06-22T01:45:54;7.60;;;5.93;;
14268;SDS011;7218;51.480;7.006;2023-06-22T01:48:21;7.50;;;6.30;;
14268;SDS011;7218;51.480;7.006;2023-06-22T01:50:48;8.80;;;6.13;;
14268;SDS011;7218;51.480;7.006;2023-06-22T01:53:15;6.95;;;6.13;;
14268;SDS011;7218;51.480;7.006;2023-06-22T01:55:42;9.95;;;6.30;;
14268;SDS011;7218;51.480;7.006;2023-06-22T01:58:08;7.63;;;6.05;;
14268;SDS011;7218;51.480;7.006;2023-06-22T02:00:37;6.68;;;5.97;;
14268;SDS011;7218;51.480;7.006;2023-06-22T02:03:08;8.68;;;6.38;;
14268;SDS011;7218;51.480;7.006;2023-06-22T02:05:38;8.75;;;6.60;;
14268;SDS011;7218;51.480;7.006;2023-06-22T02:08:08;9.75;;;6.40;;
14268;SDS011;7218;51.480;7.006;2023-06-22T02:10:36;8.77;;;6.57;;
14268;SDS011;7218;51.480;7.006;2023-06-22T02:13:06;7.22;;;5.75;;
14268;SDS011;7218;51.480;7.006;2023-06-22T02:15:33;7.85;;;6.40;;
14268;SDS011;7218;51.480;7.006;2023-06-22T02:18:00;9.35;;;6.32;;
14268;SDS011;7218;51.480;7.006;2023-06-22T02:20:28;7.53;;;6.10;;
14268;SDS011;7218;51.480;7.006;2023-06-22T02:22:55;8.95;;;5.82;;
14268;SDS011;7218;51.480;7.006;2023-06-22T02:25:21;8.30;;;5.75;;
14268;SDS011;7218;51.480;7.006;2023-06-22T02:27:48;10.20;;;6.15;;
14268;SDS011;7218;51.480;7.006;2023-06-22T02:30:14;7.47;;;5.68;;
14268;SDS011;7218;51.480;7.006;2023-06-22T02:32:41;8.50;;;6.53;;
14268;SDS011;7218;51.480;7.006;2023-06-22T02:35:08;8.48;;;6.20;;
14268;SDS011;7218;51.480;7.006;2023-06-22T02:37:36;9.15;;;6.20;;
14268;SDS011;7218;51.480;7.006;2023-06-22T02:40:06;8.40;;;6.25;;
14268;SDS011;7218;51.480;7.006;2023-06-22T02:42:34;8.80;;;6.55;;
14268;SDS011;7218;51.480;7.006;2023-06-22T02:45:00;8.68;;;6.25;;
14268;SDS011;7218;51.480;7.006;2023-06-22T02:47:27;7.25;;;6.40;;
14268;SDS011;7218;51.480;7.006;2023-06-22T02:49:53;11.05;;;6.47;;
14268;SDS011;7218;51.480;7.006;2023-06-22T02:52:20;10.02;;;6.28;;
14268;SDS011;7218;51.480;7.006;2023-06-22T02:54:48;10.30;;;6.78;;
14268;SDS011;7218;51.480;7.006;2023-06-22T02:57:15;8.32;;;6.10;;
14268;SDS011;7218;51.480;7.006;2023-06-22T02:59:42;9.63;;;6.65;;
14268;SDS011;7218;51.480;7.006;2023-06-22T03:02:08;11.32;;;6.97;;
14268;SDS011;7218;51.480;7.006;2023-06-22T03:04:36;9.38;;;6.95;;
14268;SDS011;7218;51.480;7.006;2023-06-22T03:07:02;10.48;;;7.75;;
14268;SDS011;7218;51.480;7.006;2023-06-22T03:09:29;9.80;;;8.40;;
14268;SDS011;7218;51.480;7.006;2023-06-22T03:11:57;11.18;;;9.15;;
14268;SDS011;7218;51.480;7.006;2023-06-22T03:14:25;11.20;;;8.20;;
14268;SDS011;7218;51.480;7.006;2023-06-22T03:16:51;12.38;;;9.20;;
14268;SDS011;7218;51.480;7.006;2023-06-22T03:19:18;10.43;;;9.38;;
14268;SDS011;7218;51.480;7.006;2023-06-22T03:21:46;13.88;;;10.63;;
14268;SDS011;7218;51.480;7.006;2023-06-22T03:24:13;12.38;;;10.55;;
14268;SDS011;7218;51.480;7.006;2023-06-22T03:26:39;12.48;;;10.95;;
14268;SDS011;7218;51.480;7.006;2023-06-22T03:29:07;12.18;;;10.48;;
14268;SDS011;7218;51.480;7.006;2023-06-22T03:31:33;11.85;;;10.43;;
14268;SDS011;7218;51.480;7.006;2023-06-22T03:34:00;12.90;;;11.10;;
14268;SDS011;7218;51.480;7.006;2023-06-22T03:36:26;11.38;;;10.18;;
14268;SDS011;7218;51.480;7.006;2023-06-22T03:38:53;12.38;;;10.68;;
14268;SDS011;7218;51.480;7.006;2023-06-22T03:41:19;13.70;;;10.60;;
14268;SDS011;7218;51.480;7.006;2023-06-22T03:43:45;12.13;;;10.30;;
14268;SDS011;7218;51.480;7.006;2023-06-22T03:46:14;13.07;;;10.43;;
14268;SDS011;7218;51.480;7.006;2023-06-22T03:48:40;12.77;;;10.70;;
14268;SDS011;7218;51.480;7.006;2023-06-22T03:51:07;12.07;;;10.32;;
14268;SDS011;7218;51.480;7.006;2023-06-22T03:53:33;12.20;;;10.63;;
14268;SDS011;7218;51.480;7.006;2023-06-22T03:56:00;12.40;;;10.70;;
14268;SDS011;7218;51.480;7.006;2023-06-22T03:58:26;12.27;;;10.25;;
14268;SDS011;7218;51.480;7.006;2023-06-22T04:00:53;15.35;;;11.05;;
14268;SDS011;7218;51.480;7.006;2023-06-22T04:03:21;13.02;;;11.57;;
14268;SDS011;7218;51.480;7.006;2023-06-22T04:05:48;12.68;;;11.38;;
14268;SDS011;7218;51.480;7.006;2023-06-22T04:08:14;13.80;;;11.77;;
14268;SDS011;7218;51.480;7.006;2023-06-22T04:10:41;16.95;;;12.68;;
14268;SDS011;7218;51.480;7.006;2023-06-22T04:13:08;13.02;;;11.80;;
14268;SDS011;7218;51.480;7.006;2023-06-22T04:15:34;14.85;;;12.23;;
14268;SDS011;7218;51.480;7.006;2023-06-22T04:18:01;13.77;;;12.38;;
14268;SDS011;7218;51.480;7.006;2023-06-22T04:20:28;13.50;;;12.10;;
14268;SDS011;7218;51.480;7.006;2023-06-22T04:22:57;14.88;;;13.27;;
14268;SDS011;7218;51.480;7.006;2023-06-22T04:25:23;13.85;;;12.40;;
14268;SDS011;7218;51.480;7.006;2023-06-22T04:27:50;13.20;;;11.50;;
14268;SDS011;7218;51.480;7.006;2023-06-22T04:30:16;14.27;;;12.30;;
14268;SDS011;7218;51.480;7.006;2023-06-22T04:32:43;15.77;;;13.30;;
14268;SDS011;7218;51.480;7.006;2023-06-22T04:35:10;13.65;;;11.98;;
14268;SDS011;7218;51.480;7.006;2023-06-22T04:37:39;13.32;;;11.98;;
14268;SDS011;7218;51.480;7.006;2023-06-22T04:40:06;20.02;;;12.60;;
14268;SDS011;7218;51.480;7.006;2023-06-22T04:42:34;13.75;;;12.18;;
14268;SDS011;7218;51.480;7.006;2023-06-22T04:45:01;17.92;;;12.88;;
14268;SDS011;7218;51.480;7.006;2023-06-22T04:47:29;14.95;;;13.35;;
14268;SDS011;7218;51.480;7.006;2023-06-22T04:49:56;16.58;;;12.60;;
14268;SDS011;7218;51.480;7.006;2023-06-22T04:52:22;13.52;;;12.18;;
14268;SDS011;7218;51.480;7.006;2023-06-22T04:54:52;14.75;;;12.02;;
14268;SDS011;7218;51.480;7.006;2023-06-22T04:57:20;14.57;;;12.75;;
14268;SDS011;7218;51.480;7.006;2023-06-22T04:59:57;14.95;;;13.10;;
14268;SDS011;7218;51.480;7.006;2023-06-22T05:02:26;14.80;;;12.75;;
14268;SDS011;7218;51.480;7.006;2023-06-22T05:04:56;13.68;;;12.30;;
14268;SDS011;7218;51.480;7.006;2023-06-22T05:07:23;13.38;;;11.98;;
14268;SDS011;7218;51.480;7.006;2023-06-22T05:09:51;14.85;;;12.27;;
14268;SDS011;7218;51.480;7.006;2023-06-22T05:12:18;13.98;;;12.40;;
14268;SDS011;7218;51.480;7.006;2023-06-22T05:14:44;12.65;;;11.38;;
14268;SDS011;7218;51.480;7.006;2023-06-22T05:17:11;14.98;;;12.18;;
14268;SDS011;7218;51.480;7.006;2023-06-22T05:19:38;13.73;;;11.77;;
14268;SDS011;7218;51.480;7.006;2023-06-22T05:22:05;13.73;;;11.57;;
14268;SDS011;7218;51.480;7.006;2023-06-22T05:24:32;13.60;;;12.32;;
14268;SDS011;7218;51.480;7.006;2023-06-22T05:27:00;14.55;;;12.40;;
14268;SDS011;7218;51.480;7.006;2023-06-22T05:29:26;13.20;;;11.98;;
14268;SDS011;7218;51.480;7.006;2023-06-22T05:31:53;13.60;;;12.15;;
14268;SDS011;7218;51.480;7.006;2023-06-22T05:34:19;14.63;;;12.20;;
14268;SDS011;7218;51.480;7.006;2023-06-22T05:36:46;13.02;;;11.48;;
14268;SDS011;7218;51.480;7.006;2023-06-22T05:39:12;13.50;;;12.18;;
14268;SDS011;7218;51.480;7.006;2023-06-22T05:41:40;13.45;;;12.05;;
14268;SDS011;7218;51.480;7.006;2023-06-22T05:44:09;14.40;;;12.13;;
14268;SDS011;7218;51.480;7.006;2023-06-22T05:46:35;12.98;;;11.55;;
14268;SDS011;7218;51.480;7.006;2023-06-22T05:49:02;13.75;;;12.40;;
14268;SDS011;7218;51.480;7.006;2023-06-22T05:51:28;13.40;;;12.00;;
14268;SDS011;7218;51.480;7.006;2023-06-22T05:53:55;13.90;;;12.55;;
14268;SDS011;7218;51.480;7.006;2023-06-22T05:56:21;14.23;;;12.20;;
14268;SDS011;7218;51.480;7.006;2023-06-22T05:58:48;14.13;;;12.70;;
14268;SDS011;7218;51.480;7.006;2023-06-22T06:01:16;14.38;;;13.02;;
14268;SDS011;7218;51.480;7.006;2023-06-22T06:03:42;15.77;;;13.38;;
14268;SDS011;7218;51.480;7.006;2023-06-22T06:06:09;16.55;;;13.02;;
14268;SDS011;7218;51.480;7.006;2023-06-22T06:08:36;17.92;;;13.95;;
14268;SDS011;7218;51.480;7.006;2023-06-22T06:11:03;17.75;;;15.13;;
14268;SDS011;7218;51.480;7.006;2023-06-22T06:13:29;15.82;;;13.82;;
14268;SDS011;7218;51.480;7.006;2023-06-22T06:15:55;16.85;;;14.50;;
14268;SDS011;7218;51.480;7.006;2023-06-22T06:18:25;16.52;;;14.82;;
14268;SDS011;7218;51.480;7.006;2023-06-22T06:20:51;16.90;;;15.10;;
14268;SDS011;7218;51.480;7.006;2023-06-22T06:23:18;16.67;;;14.95;;
14268;SDS011;7218;51.480;7.006;2023-06-22T06:25:44;17.70;;;14.77;;
14268;SDS011;7218;51.480;7.006;2023-06-22T06:28:11;17.27;;;15.25;;
14268;SDS011;7218;51.480;7.006;2023-06-22T06:30:37;16.58;;;14.77;;
14268;SDS011;7218;51.480;7.006;2023-06-22T06:33:04;16.35;;;14.65;;
14268;SDS011;7218;51.480;7.006;2023-06-22T06:35:35;16.45;;;14.60;;
14268;SDS011;7218;51.480;7.006;2023-06-22T06:38:02;17.50;;;15.38;;
14268;SDS011;7218;51.480;7.006;2023-06-22T06:40:29;19.85;;;15.85;;
14268;SDS011;7218;51.480;7.006;2023-06-22T06:42:56;18.80;;;15.98;;
14268;SDS011;7218;51.480;7.006;2023-06-22T06:45:23;17.75;;;16.05;;
14268;SDS011;7218;51.480;7.006;2023-06-22T06:47:50;18.50;;;16.60;;
14268;SDS011;7218;51.480;7.006;2023-06-22T06:50:17;18.23;;;16.23;;
14268;SDS011;7218;51.480;7.006;2023-06-22T06:52:46;19.98;;;17.20;;
14268;SDS011;7218;51.480;7.006;2023-06-22T06:55:12;20.20;;;16.80;;
14268;SDS011;7218;51.480;7.006;2023-06-22T06:57:39;19.00;;;16.90;;
14268;SDS011;7218;51.480;7.006;2023-06-22T07:00:07;18.60;;;16.52;;
14268;SDS011;7218;51.480;7.006;2023-06-22T07:02:37;19.05;;;16.65;;
14268;SDS011;7218;51.480;7.006;2023-06-22T07:05:04;19.75;;;16.88;;
14268;SDS011;7218;51.480;7.006;2023-06-22T07:07:31;18.80;;;16.80;;
14268;SDS011;7218;51.480;7.006;2023-06-22T07:09:58;21.15;;;16.98;;
14268;SDS011;7218;51.480;7.006;2023-06-22T07:12:25;21.30;;;18.02;;
14268;SDS011;7218;51.480;7.006;2023-06-22T07:14:52;22.92;;;17.35;;
14268;SDS011;7218;51.480;7.006;2023-06-22T07:17:18;24.58;;;17.73;;
14268;SDS011;7218;51.480;7.006;2023-06-22T07:19:45;22.23;;;17.35;;
14268;SDS011;7218;51.480;7.006;2023-06-22T07:22:11;23.25;;;17.80;;
14268;SDS011;7218;51.480;7.006;2023-06-22T07:24:38;25.27;;;18.20;;
14268;SDS011;7218;51.480;7.006;2023-06-22T07:27:06;22.35;;;18.23;;
14268;SDS011;7218;51.480;7.006;2023-06-22T07:29:32;23.48;;;18.27;;
14268;SDS011;7218;51.480;7.006;2023-06-22T07:32:00;21.17;;;17.42;;
14268;SDS011;7218;51.480;7.006;2023-06-22T07:34:29;19.15;;;16.80;;
14268;SDS011;7218;51.480;7.006;2023-06-22T07:36:56;18.17;;;16.27;;
14268;SDS011;7218;51.480;7.006;2023-06-22T07:39:22;20.40;;;16.65;;
14268;SDS011;7218;51.480;7.006;2023-06-22T07:41:51;22.33;;;17.33;;
14268;SDS011;7218;51.480;7.006;2023-06-22T07:44:19;20.77;;;16.98;;
14268;SDS011;7218;51.480;7.006;2023-06-22T07:46:45;20.63;;;16.25;;
14268;SDS011;7218;51.480;7.006;2023-06-22T07:49:12;21.75;;;15.95;;
14268;SDS011;7218;51.480;7.006;2023-06-22T07:51:38;18.70;;;16.10;;
14268;SDS011;7218;51.480;7.006;2023-06-22T07:54:05;20.73;;;16.38;;
14268;SDS011;7218;51.480;7.006;2023-06-22T07:56:32;20.05;;;17.10;;
14268;SDS011;7218;51.480;7.006;2023-06-22T07:58:58;17.27;;;15.20;;
14268;SDS011;7218;51.480;7.006;2023-06-22T08:01:28;18.23;;;16.33;;
14268;SDS011;7218;51.480;7.006;2023-06-22T08:03:54;21.92;;;16.10;;
14268;SDS011;7218;51.480;7.006;2023-06-22T08:06:21;20.02;;;16.27;;
14268;SDS011;7218;51.480;7.006;2023-06-22T08:08:47;19.98;;;16.30;;
14268;SDS011;7218;51.480;7.006;2023-06-22T08:11:14;18.23;;;15.60;;
14268;SDS011;7218;51.480;7.006;2023-06-22T08:13:41;18.33;;;16.23;;
14268;SDS011;7218;51.480;7.006;2023-06-22T08:16:08;19.67;;;16.70;;
14268;SDS011;7218;51.480;7.006;2023-06-22T08:18:35;18.52;;;16.52;;
14268;SDS011;7218;51.480;7.006;2023-06-22T08:21:02;23.10;;;16.48;;
14268;SDS011;7218;51.480;7.006;2023-06-22T08:23:28;18.10;;;16.20;;
14268;SDS011;7218;51.480;7.006;2023-06-22T08:25:55;18.55;;;16.00;;
14268;SDS011;7218;51.480;7.006;2023-06-22T08:28:22;18.42;;;14.95;;
14268;SDS011;7218;51.480;7.006;2023-06-22T08:30:48;19.20;;;15.48;;
14268;SDS011;7218;51.480;7.006;2023-06-22T08:33:14;17.02;;;15.32;;
14268;SDS011;7218;51.480;7.006;2023-06-22T08:35:42;19.23;;;15.82;;
14268;SDS011;7218;51.480;7.006;2023-06-22T08:38:09;18.23;;;15.43;;
14268;SDS011;7218;51.480;7.006;2023-06-22T08:40:35;17.42;;;14.48;;
14268;SDS011;7218;51.480;7.006;2023-06-22T08:43:02;18.75;;;15.15;;
14268;SDS011;7218;51.480;7.006;2023-06-22T08:45:28;16.60;;;14.20;;
14268;SDS011;7218;51.480;7.006;2023-06-22T08:47:55;18.00;;;14.60;;
14268;SDS011;7218;51.480;7.006;2023-06-22T08:50:21;15.95;;;14.02;;
14268;SDS011;7218;51.480;7.006;2023-06-22T08:52:49;16.55;;;13.73;;
14268;SDS011;7218;51.480;7.006;2023-06-22T08:55:16;15.85;;;14.07;;
14268;SDS011;7218;51.480;7.006;2023-06-22T08:57:42;18.10;;;14.48;;
14268;SDS011;7218;51.480;7.006;2023-06-22T09:00:09;15.32;;;13.82;;
14268;SDS011;7218;51.480;7.006;2023-06-22T09:02:41;15.98;;;14.05;;
14268;SDS011;7218;51.480;7.006;2023-06-22T09:05:08;15.50;;;13.75;;
14268;SDS011;7218;51.480;7.006;2023-06-22T09:07:35;16.77;;;14.15;;
14268;SDS011;7218;51.480;7.006;2023-06-22T09:10:03;16.52;;;14.82;;
14268;SDS011;7218;51.480;7.006;2023-06-22T09:12:30;17.92;;;14.85;;
14268;SDS011;7218;51.480;7.006;2023-06-22T09:14:57;15.48;;;13.90;;
14268;SDS011;7218;51.480;7.006;2023-06-22T09:17:25;22.48;;;14.48;;
14268;SDS011;7218;51.480;7.006;2023-06-22T09:19:51;17.15;;;15.07;;
14268;SDS011;7218;51.480;7.006;2023-06-22T09:22:18;22.05;;;16.30;;
14268;SDS011;7218;51.480;7.006;2023-06-22T09:24:44;16.25;;;14.57;;
14268;SDS011;7218;51.480;7.006;2023-06-22T09:27:12;20.00;;;15.80;;
14268;SDS011;7218;51.480;7.006;2023-06-22T09:29:38;21.80;;;14.90;;
14268;SDS011;7218;51.480;7.006;2023-06-22T09:32:05;16.00;;;14.35;;
14268;SDS011;7218;51.480;7.006;2023-06-22T09:34:32;17.70;;;15.18;;
14268;SDS011;7218;51.480;7.006;2023-06-22T09:36:59;18.75;;;14.77;;
14268;SDS011;7218;51.480;7.006;2023-06-22T09:39:25;16.15;;;14.55;;
14268;SDS011;7218;51.480;7.006;2023-06-22T09:41:52;16.73;;;14.35;;
14268;SDS011;7218;51.480;7.006;2023-06-22T09:44:20;20.10;;;14.35;;
14268;SDS011;7218;51.480;7.006;2023-06-22T09:46:46;15.85;;;14.15;;
14268;SDS011;7218;51.480;7.006;2023-06-22T09:49:12;15.75;;;13.82;;
14268;SDS011;7218;51.480;7.006;2023-06-22T09:51:39;16.30;;;13.88;;
14268;SDS011;7218;51.480;7.006;2023-06-22T09:54:05;14.75;;;13.32;;
14268;SDS011;7218;51.480;7.006;2023-06-22T09:56:32;14.07;;;12.57;;
14268;SDS011;7218;51.480;7.006;2023-06-22T09:58:58;14.07;;;12.38;;
14268;SDS011;7218;51.480;7.006;2023-06-22T10:01:26;15.55;;;12.68;;
14268;SDS011;7218;51.480;7.006;2023-06-22T10:03:52;13.90;;;12.27;;
14268;SDS011;7218;51.480;7.006;2023-06-22T10:06:21;13.63;;;12.27;;
14268;SDS011;7218;51.480;7.006;2023-06-22T10:08:47;13.35;;;12.02;;
14268;SDS011;7218;51.480;7.006;2023-06-22T10:11:14;15.25;;;12.82;;
14268;SDS011;7218;51.480;7.006;2023-06-22T10:13:40;12.73;;;11.52;;
14268;SDS011;7218;51.480;7.006;2023-06-22T10:16:07;15.52;;;11.57;;
14268;SDS011;7218;51.480;7.006;2023-06-22T10:18:34;14.95;;;12.88;;
14268;SDS011;7218;51.480;7.006;2023-06-22T10:21:01;13.27;;;11.98;;
14268;SDS011;7218;51.480;7.006;2023-06-22T10:23:28;17.42;;;11.43;;
14268;SDS011;7218;51.480;7.006;2023-06-22T10:25:54;12.90;;;11.70;;
14268;SDS011;7218;51.480;7.006;2023-06-22T10:28:23;12.55;;;11.20;;
14268;SDS011;7218;51.480;7.006;2023-06-22T10:30:49;13.88;;;12.40;;
14268;SDS011;7218;51.480;7.006;2023-06-22T10:33:16;12.80;;;11.30;;
14268;SDS011;7218;51.480;7.006;2023-06-22T10:35:44;11.68;;;10.45;;
14268;SDS011;7218;51.480;7.006;2023-06-22T10:38:10;10.75;;;9.65;;
14268;SDS011;7218;51.480;7.006;2023-06-22T10:40:37;12.63;;;10.02;;
14268;SDS011;7218;51.480;7.006;2023-06-22T10:43:04;11.95;;;9.95;;
14268;SDS011;7218;51.480;7.006;2023-06-22T10:45:31;10.02;;;9.00;;
14268;SDS011;7218;51.480;7.006;2023-06-22T10:47:57;11.30;;;10.18;;
14268;SDS011;7218;51.480;7.006;2023-06-22T10:50:24;12.70;;;10.35;;
14268;SDS011;7218;51.480;7.006;2023-06-22T10:52:52;11.27;;;10.18;;
14268;SDS011;7218;51.480;7.006;2023-06-22T10:55:19;11.40;;;10.32;;
14268;SDS011;7218;51.480;7.006;2023-06-22T10:57:46;12.20;;;11.02;;
14268;SDS011;7218;51.480;7.006;2023-06-22T11:00:13;11.88;;;10.38;;
14268;SDS011;7218;51.480;7.006;2023-06-22T11:02:40;11.20;;;10.13;;
14268;SDS011;7218;51.480;7.006;2023-06-22T11:05:07;11.77;;;10.52;;
14268;SDS011;7218;51.480;7.006;2023-06-22T11:07:33;11.98;;;10.77;;
14268;SDS011;7218;51.480;7.006;2023-06-22T11:10:01;12.32;;;10.88;;
14268;SDS011;7218;51.480;7.006;2023-06-22T11:12:28;13.35;;;11.10;;
14268;SDS011;7218;51.480;7.006;2023-06-22T11:14:54;13.05;;;10.57;;
14268;SDS011;7218;51.480;7.006;2023-06-22T11:17:22;12.90;;;11.60;;
14268;SDS011;7218;51.480;7.006;2023-06-22T11:19:48;13.32;;;11.98;;
14268;SDS011;7218;51.480;7.006;2023-06-22T11:22:15;16.83;;;12.50;;
14268;SDS011;7218;51.480;7.006;2023-06-22T11:24:41;15.02;;;13.52;;
14268;SDS011;7218;51.480;7.006;2023-06-22T11:27:09;15.85;;;14.20;;
14268;SDS011;7218;51.480;7.006;2023-06-22T11:29:36;15.10;;;13.63;;
14268;SDS011;7218;51.480;7.006;2023-06-22T11:32:04;16.95;;;15.25;;
14268;SDS011;7218;51.480;7.006;2023-06-22T11:34:32;16.77;;;15.18;;
14268;SDS011;7218;51.480;7.006;2023-06-22T11:36:59;16.90;;;15.05;;
14268;SDS011;7218;51.480;7.006;2023-06-22T11:39:25;17.17;;;15.50;;
14268;SDS011;7218;51.480;7.006;2023-06-22T11:41:52;18.58;;;16.60;;
14268;SDS011;7218;51.480;7.006;2023-06-22T11:44:20;21.40;;;18.55;;
14268;SDS011;7218;51.480;7.006;2023-06-22T11:46:46;22.00;;;19.10;;
14268;SDS011;7218;51.480;7.006;2023-06-22T11:49:13;25.92;;;21.23;;
14268;SDS011;7218;51.480;7.006;2023-06-22T11:51:39;24.95;;;22.23;;
14268;SDS011;7218;51.480;7.006;2023-06-22T11:54:06;25.83;;;22.30;;
14268;SDS011;7218;51.480;7.006;2023-06-22T11:56:34;24.92;;;22.33;;
14268;SDS011;7218;51.480;7.006;2023-06-22T11:59:01;26.05;;;23.08;;
14268;SDS011;7218;51.480;7.006;2023-06-22T12:01:29;28.00;;;23.63;;
14268;SDS011;7218;51.480;7.006;2023-06-22T12:03:58;27.20;;;23.10;;
14268;SDS011;7218;51.480;7.006;2023-06-22T12:06:24;28.65;;;25.48;;
14268;SDS011;7218;51.480;7.006;2023-06-22T12:08:50;29.20;;;23.83;;
14268;SDS011;7218;51.480;7.006;2023-06-22T12:11:17;26.52;;;23.67;;
14268;SDS011;7218;51.480;7.006;2023-06-22T12:13:43;27.98;;;25.05;;
14268;SDS011;7218;51.480;7.006;2023-06-22T12:16:10;27.83;;;24.85;;
14268;SDS011;7218;51.480;7.006;2023-06-22T12:18:38;27.98;;;24.95;;
14268;SDS011;7218;51.480;7.006;2023-06-22T12:21:05;27.38;;;24.40;;
14268;SDS011;7218;51.480;7.006;2023-06-22T12:23:31;27.45;;;24.38;;
14268;SDS011;7218;51.480;7.006;2023-06-22T12:25:57;26.58;;;23.98;;
14268;SDS011;7218;51.480;7.006;2023-06-22T12:28:25;27.80;;;24.80;;
14268;SDS011;7218;51.480;7.006;2023-06-22T12:30:51;29.45;;;25.63;;
14268;SDS011;7218;51.480;7.006;2023-06-22T12:33:17;28.92;;;26.15;;
14268;SDS011;7218;51.480;7.006;2023-06-22T12:35:45;28.88;;;25.83;;
14268;SDS011;7218;51.480;7.006;2023-06-22T12:38:13;28.23;;;25.23;;
14268;SDS011;7218;51.480;7.006;2023-06-22T12:40:40;28.77;;;25.88;;
14268;SDS011;7218;51.480;7.006;2023-06-22T12:43:06;31.70;;;27.75;;
14268;SDS011;7218;51.480;7.006;2023-06-22T12:45:33;31.67;;;28.48;;
14268;SDS011;7218;51.480;7.006;2023-06-22T12:47:59;30.55;;;27.45;;
14268;SDS011;7218;51.480;7.006;2023-06-22T12:50:26;31.02;;;27.70;;
14268;SDS011;7218;51.480;7.006;2023-06-22T12:52:54;30.92;;;27.90;;
14268;SDS011;7218;51.480;7.006;2023-06-22T12:55:20;34.40;;;28.40;;
14268;SDS011;7218;51.480;7.006;2023-06-22T12:57:47;32.95;;;28.08;;
14268;SDS011;7218;51.480;7.006;2023-06-22T13:00:18;32.58;;;29.10;;
14268;SDS011;7218;51.480;7.006;2023-06-22T13:02:45;32.25;;;28.80;;
14268;SDS011;7218;51.480;7.006;2023-06-22T13:05:11;29.83;;;26.60;;
14268;SDS011;7218;51.480;7.006;2023-06-22T13:07:38;31.35;;;28.15;;
14268;SDS011;7218;51.480;7.006;2023-06-22T13:10:06;33.50;;;29.95;;
14268;SDS011;7218;51.480;7.006;2023-06-22T13:12:33;33.75;;;29.92;;
14268;SDS011;7218;51.480;7.006;2023-06-22T13:15:00;33.97;;;30.48;;
14268;SDS011;7218;51.480;7.006;2023-06-22T13:17:28;33.55;;;30.10;;
14268;SDS011;7218;51.480;7.006;2023-06-22T13:19:57;33.50;;;29.90;;
14268;SDS011;7218;51.480;7.006;2023-06-22T13:22:28;33.83;;;30.48;;
14268;SDS011;7218;51.480;7.006;2023-06-22T13:24:55;33.40;;;29.70;;
14268;SDS011;7218;51.480;7.006;2023-06-22T13:27:24;32.45;;;29.15;;
14268;SDS011;7218;51.480;7.006;2023-06-22T13:29:50;32.17;;;29.08;;
14268;SDS011;7218;51.480;7.006;2023-06-22T13:32:17;33.30;;;29.92;;
14268;SDS011;7218;51.480;7.006;2023-06-22T13:34:43;31.92;;;28.67;;
14268;SDS011;7218;51.480;7.006;2023-06-22T13:37:10;33.50;;;29.95;;
14268;SDS011;7218;51.480;7.006;2023-06-22T13:39:37;34.08;;;30.42;;
14268;SDS011;7218;51.480;7.006;2023-06-22T13:42:04;32.05;;;28.75;;
14268;SDS011;7218;51.480;7.006;2023-06-22T13:44:32;30.13;;;27.20;;
14268;SDS011;7218;51.480;7.006;2023-06-22T13:46:59;31.50;;;28.23;;
14268;SDS011;7218;51.480;7.006;2023-06-22T13:49:25;34.13;;;30.80;;
14268;SDS011;7218;51.480;7.006;2023-06-22T13:51:52;32.97;;;29.75;;
14268;SDS011;7218;51.480;7.006;2023-06-22T13:54:18;33.70;;;30.10;;
14268;SDS011;7218;51.480;7.006;2023-06-22T13:56:45;31.95;;;28.80;;
14268;SDS011;7218;51.480;7.006;2023-06-22T13:59:11;31.83;;;28.60;;
14268;SDS011;7218;51.480;7.006;2023-06-22T14:01:39;31.35;;;28.25;;
14268;SDS011;7218;51.480;7.006;2023-06-22T14:04:06;31.23;;;27.65;;
14268;SDS011;7218;51.480;7.006;2023-06-22T14:06:33;32.10;;;28.98;;
14268;SDS011;7218;51.480;7.006;2023-06-22T14:08:59;30.98;;;27.65;;
14268;SDS011;7218;51.480;7.006;2023-06-22T14:11:25;31.20;;;28.08;;
14268;SDS011;7218;51.480;7.006;2023-06-22T14:13:52;31.35;;;28.35;;
14268;SDS011;7218;51.480;7.006;2023-06-22T14:16:19;30.98;;;27.77;;
14268;SDS011;7218;51.480;7.006;2023-06-22T14:18:47;31.05;;;28.15;;
14268;SDS011;7218;51.480;7.006;2023-06-22T14:21:13;31.95;;;28.77;;
14268;SDS011;7218;51.480;7.006;2023-06-22T14:23:40;32.05;;;28.65;;
14268;SDS011;7218;51.480;7.006;2023-06-22T14:26:06;31.33;;;28.30;;
14268;SDS011;7218;51.480;7.006;2023-06-22T14:28:33;31.30;;;28.05;;
14268;SDS011;7218;51.480;7.006;2023-06-22T14:30:59;31.27;;;28.27;;
14268;SDS011;7218;51.480;7.006;2023-06-22T14:33:26;30.33;;;27.38;;
14268;SDS011;7218;51.480;7.006;2023-06-22T14:35:53;30.02;;;27.10;;
14268;SDS011;7218;51.480;7.006;2023-06-22T14:38:21;31.45;;;28.23;;
14268;SDS011;7218;51.480;7.006;2023-06-22T14:40:47;29.35;;;26.35;;